sensor_id;sensor_type;location;lat;lon;timestamp;temperature;humidity
58582;DHT22;44361;51.476;5.700;2023-03-08T00:01:16;0.90;99.90
58582;DHT22;44361;51.476;5.700;2023-03-08T00:03:42;0.90;99.90
58582;DHT22;44361;51.476;5.700;2023-03-08T00:06:10;0.90;99.90
58582;DHT22;44361;51.476;5.700;2023-03-08T00:08:36;0.90;99.90
58582;DHT22;44361;51.476;5.700;2023-03-08T00:11:06;1.00;99.90
58582;DHT22;44361;51.476;5.700;2023-03-08T00:13:32;1.00;99.90
58582;DHT22;44361;51.476;5.700;2023-03-08T00:15:59;0.90;99.90
58582;DHT22;44361;51.476;5.700;2023-03-08T00:18:25;0.90;99.90
58582;DHT22;44361;51.476;5.700;2023-03-08T00:21:11;0.90;99.90
58582;DHT22;44361;51.476;5.700;2023-03-08T00:23:36;0.90;99.90
58582;DHT22;44361;51.476;5.700;2023-03-08T00:26:02;0.90;99.90
58582;DHT22;44361;51.476;5.700;2023-03-08T00:28:28;0.90;99.90
58582;DHT22;44361;51.476;5.700;2023-03-08T00:31:03;0.90;99.90
58582;DHT22;44361;51.476;5.700;2023-03-08T00:33:29;0.90;99.90
58582;DHT22;44361;51.476;5.700;2023-03-08T00:36:02;0.90;99.90
58582;DHT22;44361;51.476;5.700;2023-03-08T00:38:30;0.90;99.90
58582;DHT22;44361;51.476;5.700;2023-03-08T00:40:56;0.90;99.90
58582;DHT22;44361;51.476;5.700;2023-03-08T00:43:21;0.90;99.90
58582;DHT22;44361;51.476;5.700;2023-03-08T00:45:47;1.00;99.90
58582;DHT22;44361;51.476;5.700;2023-03-08T00:48:13;1.00;99.90
58582;DHT22;44361;51.476;5.700;2023-03-08T00:50:38;1.00;99.90
58582;DHT22;44361;51.476;5.700;2023-03-08T00:53:04;1.00;99.90
58582;DHT22;44361;51.476;5.700;2023-03-08T00:55:30;1.00;99.90
58582;DHT22;44361;51.476;5.700;2023-03-08T00:57:55;1.10;99.90
58582;DHT22;44361;51.476;5.700;2023-03-08T01:00:22;1.10;99.90
58582;DHT22;44361;51.476;5.700;2023-03-08T01:02:48;1.10;99.90
58582;DHT22;44361;51.476;5.700;2023-03-08T01:05:14;1.10;99.90
58582;DHT22;44361;51.476;5.700;2023-03-08T01:07:39;1.20;99.90
58582;DHT22;44361;51.476;5.700;2023-03-08T01:10:05;1.10;99.90
58582;DHT22;44361;51.476;5.700;2023-03-08T01:12:32;1.10;99.90
58582;DHT22;44361;51.476;5.700;2023-03-08T01:14:58;1.20;99.90
58582;DHT22;44361;51.476;5.700;2023-03-08T01:17:24;1.10;99.90
58582;DHT22;44361;51.476;5.700;2023-03-08T01:19:49;1.10;99.90
58582;DHT22;44361;51.476;5.700;2023-03-08T01:22:15;1.20;99.90
58582;DHT22;44361;51.476;5.700;2023-03-08T01:24:45;1.20;99.90
58582;DHT22;44361;51.476;5.700;2023-03-08T01:27:10;1.20;99.90
58582;DHT22;44361;51.476;5.700;2023-03-08T01:29:36;1.20;99.90
58582;DHT22;44361;51.476;5.700;2023-03-08T01:32:02;1.20;99.90
58582;DHT22;44361;51.476;5.700;2023-03-08T01:34:27;1.20;99.90
58582;DHT22;44361;51.476;5.700;2023-03-08T01:36:53;1.20;99.90
58582;DHT22;44361;51.476;5.700;2023-03-08T01:39:18;1.20;99.90
58582;DHT22;44361;51.476;5.700;2023-03-08T01:41:44;1.20;99.90
58582;DHT22;44361;51.476;5.700;2023-03-08T01:44:17;1.20;99.90
58582;DHT22;44361;51.476;5.700;2023-03-08T01:46:44;1.30;99.90
58582;DHT22;44361;51.476;5.700;2023-03-08T01:49:25;1.30;99.90
58582;DHT22;44361;51.476;5.700;2023-03-08T01:52:03;1.30;99.90
58582;DHT22;44361;51.476;5.700;2023-03-08T02:00:07;1.30;99.90
58582;DHT22;44361;51.476;5.700;2023-03-08T02:02:41;1.30;99.90
58582;DHT22;44361;51.476;5.700;2023-03-08T02:08:22;1.30;99.90
58582;DHT22;44361;51.476;5.700;2023-03-08T02:10:48;1.30;99.90
58582;DHT22;44361;51.476;5.700;2023-03-08T02:13:15;1.30;99.90
58582;DHT22;44361;51.476;5.700;2023-03-08T02:15:41;1.30;99.90
58582;DHT22;44361;51.476;5.700;2023-03-08T02:18:06;1.30;99.90
58582;DHT22;44361;51.476;5.700;2023-03-08T02:20:38;1.30;99.90
58582;DHT22;44361;51.476;5.700;2023-03-08T02:23:15;1.30;99.90
58582;DHT22;44361;51.476;5.700;2023-03-08T02:26:09;1.30;99.90
58582;DHT22;44361;51.476;5.700;2023-03-08T02:28:34;1.30;99.90
58582;DHT22;44361;51.476;5.700;2023-03-08T02:31:00;1.30;99.90
58582;DHT22;44361;51.476;5.700;2023-03-08T02:33:26;1.30;99.90
58582;DHT22;44361;51.476;5.700;2023-03-08T02:35:51;1.30;99.90
58582;DHT22;44361;51.476;5.700;2023-03-08T02:38:19;1.30;99.90
58582;DHT22;44361;51.476;5.700;2023-03-08T02:40:45;1.30;99.90
58582;DHT22;44361;51.476;5.700;2023-03-08T02:43:11;1.30;99.90
58582;DHT22;44361;51.476;5.700;2023-03-08T02:45:36;1.30;99.90
58582;DHT22;44361;51.476;5.700;2023-03-08T02:48:04;1.30;99.90
58582;DHT22;44361;51.476;5.700;2023-03-08T02:50:30;1.30;99.90
58582;DHT22;44361;51.476;5.700;2023-03-08T02:52:56;1.30;99.90
58582;DHT22;44361;51.476;5.700;2023-03-08T02:55:22;1.40;99.90
58582;DHT22;44361;51.476;5.700;2023-03-08T02:57:47;1.40;99.90
58582;DHT22;44361;51.476;5.700;2023-03-08T03:00:13;1.40;99.90
58582;DHT22;44361;51.476;5.700;2023-03-08T03:02:38;1.40;99.90
58582;DHT22;44361;51.476;5.700;2023-03-08T03:05:06;1.40;99.90
58582;DHT22;44361;51.476;5.700;2023-03-08T03:07:37;1.40;99.90
58582;DHT22;44361;51.476;5.700;2023-03-08T03:10:04;1.30;99.90
58582;DHT22;44361;51.476;5.700;2023-03-08T03:12:30;1.30;99.90
58582;DHT22;44361;51.476;5.700;2023-03-08T03:14:56;1.30;99.90
58582;DHT22;44361;51.476;5.700;2023-03-08T03:17:21;1.30;99.90
58582;DHT22;44361;51.476;5.700;2023-03-08T03:19:47;1.40;99.90
58582;DHT22;44361;51.476;5.700;2023-03-08T03:22:12;1.40;99.90
58582;DHT22;44361;51.476;5.700;2023-03-08T03:24:38;1.40;99.90
58582;DHT22;44361;51.476;5.700;2023-03-08T03:27:03;1.40;99.90
58582;DHT22;44361;51.476;5.700;2023-03-08T03:29:29;1.40;99.90
58582;DHT22;44361;51.476;5.700;2023-03-08T03:31:55;1.40;99.90
58582;DHT22;44361;51.476;5.700;2023-03-08T03:34:20;1.40;99.90
58582;DHT22;44361;51.476;5.700;2023-03-08T03:36:46;1.40;99.90
58582;DHT22;44361;51.476;5.700;2023-03-08T03:39:12;1.40;99.90
58582;DHT22;44361;51.476;5.700;2023-03-08T03:41:37;1.40;99.90
58582;DHT22;44361;51.476;5.700;2023-03-08T03:44:03;1.30;99.90
58582;DHT22;44361;51.476;5.700;2023-03-08T03:46:28;1.30;99.90
58582;DHT22;44361;51.476;5.700;2023-03-08T03:48:54;1.30;99.90
58582;DHT22;44361;51.476;5.700;2023-03-08T03:51:21;1.30;99.90
58582;DHT22;44361;51.476;5.700;2023-03-08T03:53:47;1.30;99.90
58582;DHT22;44361;51.476;5.700;2023-03-08T03:56:15;1.30;99.90
58582;DHT22;44361;51.476;5.700;2023-03-08T03:58:41;1.30;99.90
58582;DHT22;44361;51.476;5.700;2023-03-08T04:01:08;1.30;99.90
58582;DHT22;44361;51.476;5.700;2023-03-08T04:03:34;1.30;99.90
58582;DHT22;44361;51.476;5.700;2023-03-08T04:06:20;1.30;99.90
58582;DHT22;44361;51.476;5.700;2023-03-08T04:08:47;1.30;99.90
58582;DHT22;44361;51.476;5.700;2023-03-08T04:11:16;1.30;99.90
58582;DHT22;44361;51.476;5.700;2023-03-08T04:13:42;1.30;99.90
58582;DHT22;44361;51.476;5.700;2023-03-08T04:16:16;1.30;99.90
58582;DHT22;44361;51.476;5.700;2023-03-08T04:18:42;1.30;99.90
58582;DHT22;44361;51.476;5.700;2023-03-08T04:21:09;1.30;99.90
58582;DHT22;44361;51.476;5.700;2023-03-08T04:23:35;1.30;99.90
58582;DHT22;44361;51.476;5.700;2023-03-08T04:26:01;1.30;99.90
58582;DHT22;44361;51.476;5.700;2023-03-08T04:28:27;1.30;99.90
58582;DHT22;44361;51.476;5.700;2023-03-08T04:30:52;1.30;99.90
58582;DHT22;44361;51.476;5.700;2023-03-08T04:33:18;1.20;99.90
58582;DHT22;44361;51.476;5.700;2023-03-08T04:35:44;1.20;99.90
58582;DHT22;44361;51.476;5.700;2023-03-08T04:38:09;1.20;99.90
58582;DHT22;44361;51.476;5.700;2023-03-08T04:40:35;1.20;99.90
58582;DHT22;44361;51.476;5.700;2023-03-08T04:43:20;1.20;99.90
58582;DHT22;44361;51.476;5.700;2023-03-08T04:45:46;1.20;99.90
58582;DHT22;44361;51.476;5.700;2023-03-08T04:48:11;1.30;99.90
58582;DHT22;44361;51.476;5.700;2023-03-08T04:50:37;1.30;99.90
58582;DHT22;44361;51.476;5.700;2023-03-08T04:53:03;1.30;99.90
58582;DHT22;44361;51.476;5.700;2023-03-08T04:55:29;1.30;99.90
58582;DHT22;44361;51.476;5.700;2023-03-08T04:57:55;1.30;99.90
58582;DHT22;44361;51.476;5.700;2023-03-08T05:00:20;1.30;99.90
58582;DHT22;44361;51.476;5.700;2023-03-08T05:02:46;1.30;99.90
58582;DHT22;44361;51.476;5.700;2023-03-08T05:05:11;1.30;99.90
58582;DHT22;44361;51.476;5.700;2023-03-08T05:07:37;1.30;99.90
58582;DHT22;44361;51.476;5.700;2023-03-08T05:10:03;1.20;99.90
58582;DHT22;44361;51.476;5.700;2023-03-08T05:12:28;1.30;99.90
58582;DHT22;44361;51.476;5.700;2023-03-08T05:14:54;1.30;99.90
58582;DHT22;44361;51.476;5.700;2023-03-08T05:17:19;1.30;99.90
58582;DHT22;44361;51.476;5.700;2023-03-08T05:19:45;1.30;99.90
58582;DHT22;44361;51.476;5.700;2023-03-08T05:22:11;1.30;99.90
58582;DHT22;44361;51.476;5.700;2023-03-08T05:24:37;1.30;99.90
58582;DHT22;44361;51.476;5.700;2023-03-08T05:27:05;1.30;99.90
58582;DHT22;44361;51.476;5.700;2023-03-08T05:29:31;1.20;99.90
58582;DHT22;44361;51.476;5.700;2023-03-08T05:31:59;1.20;99.90
58582;DHT22;44361;51.476;5.700;2023-03-08T05:34:27;1.20;99.90
58582;DHT22;44361;51.476;5.700;2023-03-08T05:36:52;1.20;99.90
58582;DHT22;44361;51.476;5.700;2023-03-08T05:39:18;1.20;99.90
58582;DHT22;44361;51.476;5.700;2023-03-08T05:41:43;1.20;99.90
58582;DHT22;44361;51.476;5.700;2023-03-08T05:44:08;1.20;99.90
58582;DHT22;44361;51.476;5.700;2023-03-08T05:46:34;1.20;99.90
58582;DHT22;44361;51.476;5.700;2023-03-08T05:49:02;1.10;99.90
58582;DHT22;44361;51.476;5.700;2023-03-08T05:51:28;1.10;99.90
58582;DHT22;44361;51.476;5.700;2023-03-08T05:53:53;1.10;99.90
58582;DHT22;44361;51.476;5.700;2023-03-08T05:56:21;1.10;99.90
58582;DHT22;44361;51.476;5.700;2023-03-08T05:58:47;1.10;99.90
58582;DHT22;44361;51.476;5.700;2023-03-08T06:01:22;1.00;99.90
58582;DHT22;44361;51.476;5.700;2023-03-08T06:03:50;1.00;99.90
58582;DHT22;44361;51.476;5.700;2023-03-08T06:06:18;0.90;99.90
58582;DHT22;44361;51.476;5.700;2023-03-08T06:08:44;0.90;99.90
58582;DHT22;44361;51.476;5.700;2023-03-08T06:11:10;0.90;99.90
58582;DHT22;44361;51.476;5.700;2023-03-08T06:13:36;0.90;99.90
58582;DHT22;44361;51.476;5.700;2023-03-08T06:16:02;0.90;99.90
58582;DHT22;44361;51.476;5.700;2023-03-08T06:18:29;0.80;99.90
58582;DHT22;44361;51.476;5.700;2023-03-08T06:20:59;0.80;99.90
58582;DHT22;44361;51.476;5.700;2023-03-08T06:23:27;0.80;99.90
58582;DHT22;44361;51.476;5.700;2023-03-08T06:25:53;0.80;99.90
58582;DHT22;44361;51.476;5.700;2023-03-08T06:28:18;0.70;99.90
58582;DHT22;44361;51.476;5.700;2023-03-08T06:30:46;0.70;99.90
58582;DHT22;44361;51.476;5.700;2023-03-08T06:33:13;0.70;99.90
58582;DHT22;44361;51.476;5.700;2023-03-08T06:35:39;0.70;99.90
58582;DHT22;44361;51.476;5.700;2023-03-08T06:38:04;0.70;99.90
58582;DHT22;44361;51.476;5.700;2023-03-08T06:40:30;0.70;99.90
58582;DHT22;44361;51.476;5.700;2023-03-08T06:42:56;0.70;99.90
58582;DHT22;44361;51.476;5.700;2023-03-08T06:45:21;0.70;99.90
58582;DHT22;44361;51.476;5.700;2023-03-08T06:47:47;0.70;99.90
58582;DHT22;44361;51.476;5.700;2023-03-08T06:50:12;0.60;99.90
58582;DHT22;44361;51.476;5.700;2023-03-08T06:52:38;0.60;99.90
58582;DHT22;44361;51.476;5.700;2023-03-08T06:55:04;0.60;99.90
58582;DHT22;44361;51.476;5.700;2023-03-08T06:57:30;0.60;99.90
58582;DHT22;44361;51.476;5.700;2023-03-08T06:59:55;0.70;99.90
58582;DHT22;44361;51.476;5.700;2023-03-08T07:02:21;0.60;99.90
58582;DHT22;44361;51.476;5.700;2023-03-08T07:04:46;0.70;99.90
58582;DHT22;44361;51.476;5.700;2023-03-08T07:07:12;0.70;99.90
58582;DHT22;44361;51.476;5.700;2023-03-08T07:09:37;0.70;99.90
58582;DHT22;44361;51.476;5.700;2023-03-08T07:12:03;0.70;99.90
58582;DHT22;44361;51.476;5.700;2023-03-08T07:14:29;0.70;99.90
58582;DHT22;44361;51.476;5.700;2023-03-08T07:16:54;0.70;99.90
58582;DHT22;44361;51.476;5.700;2023-03-08T07:19:20;0.70;99.90
58582;DHT22;44361;51.476;5.700;2023-03-08T07:21:45;0.70;99.90
58582;DHT22;44361;51.476;5.700;2023-03-08T07:24:11;0.70;99.90
58582;DHT22;44361;51.476;5.700;2023-03-08T07:26:36;0.80;99.90
58582;DHT22;44361;51.476;5.700;2023-03-08T07:29:02;0.70;99.90
58582;DHT22;44361;51.476;5.700;2023-03-08T07:31:28;0.70;99.90
58582;DHT22;44361;51.476;5.700;2023-03-08T07:34:01;0.70;99.90
58582;DHT22;44361;51.476;5.700;2023-03-08T07:36:26;0.70;99.90
58582;DHT22;44361;51.476;5.700;2023-03-08T07:38:52;0.70;99.90
58582;DHT22;44361;51.476;5.700;2023-03-08T07:41:17;0.70;99.90
58582;DHT22;44361;51.476;5.700;2023-03-08T07:43:43;0.70;99.90
58582;DHT22;44361;51.476;5.700;2023-03-08T07:46:08;0.70;99.90
58582;DHT22;44361;51.476;5.700;2023-03-08T07:48:34;0.70;99.90
58582;DHT22;44361;51.476;5.700;2023-03-08T07:51:01;0.70;99.90
58582;DHT22;44361;51.476;5.700;2023-03-08T07:53:27;0.70;99.90
58582;DHT22;44361;51.476;5.700;2023-03-08T07:55:53;0.70;99.90
58582;DHT22;44361;51.476;5.700;2023-03-08T07:58:19;0.70;99.90
58582;DHT22;44361;51.476;5.700;2023-03-08T08:00:46;0.70;99.90
58582;DHT22;44361;51.476;5.700;2023-03-08T08:03:11;0.70;99.90
58582;DHT22;44361;51.476;5.700;2023-03-08T08:05:37;0.70;99.90
58582;DHT22;44361;51.476;5.700;2023-03-08T08:08:02;0.70;99.90
58582;DHT22;44361;51.476;5.700;2023-03-08T08:10:28;0.70;99.90
58582;DHT22;44361;51.476;5.700;2023-03-08T08:12:54;0.70;99.90
58582;DHT22;44361;51.476;5.700;2023-03-08T08:15:19;0.70;99.90
58582;DHT22;44361;51.476;5.700;2023-03-08T08:17:45;0.70;99.90
58582;DHT22;44361;51.476;5.700;2023-03-08T08:20:12;0.70;99.90
58582;DHT22;44361;51.476;5.700;2023-03-08T08:22:38;0.70;99.90
58582;DHT22;44361;51.476;5.700;2023-03-08T08:25:05;0.60;99.90
58582;DHT22;44361;51.476;5.700;2023-03-08T08:27:31;0.60;99.90
58582;DHT22;44361;51.476;5.700;2023-03-08T08:29:56;0.60;99.90
58582;DHT22;44361;51.476;5.700;2023-03-08T08:32:23;0.60;99.90
58582;DHT22;44361;51.476;5.700;2023-03-08T08:34:49;0.70;99.90
58582;DHT22;44361;51.476;5.700;2023-03-08T08:37:14;0.60;99.90
58582;DHT22;44361;51.476;5.700;2023-03-08T08:39:40;0.70;99.90
58582;DHT22;44361;51.476;5.700;2023-03-08T08:42:06;0.70;99.90
58582;DHT22;44361;51.476;5.700;2023-03-08T08:44:31;0.70;99.90
58582;DHT22;44361;51.476;5.700;2023-03-08T08:46:57;0.60;99.90
58582;DHT22;44361;51.476;5.700;2023-03-08T08:49:22;0.70;99.90
58582;DHT22;44361;51.476;5.700;2023-03-08T08:51:48;0.70;99.90
58582;DHT22;44361;51.476;5.700;2023-03-08T08:54:13;0.70;99.90
58582;DHT22;44361;51.476;5.700;2023-03-08T08:56:39;0.70;99.90
58582;DHT22;44361;51.476;5.700;2023-03-08T08:59:09;0.60;99.90
58582;DHT22;44361;51.476;5.700;2023-03-08T09:01:36;0.70;99.90
58582;DHT22;44361;51.476;5.700;2023-03-08T09:04:08;0.70;99.90
58582;DHT22;44361;51.476;5.700;2023-03-08T09:06:33;0.70;99.90
58582;DHT22;44361;51.476;5.700;2023-03-08T09:08:59;0.80;99.90
58582;DHT22;44361;51.476;5.700;2023-03-08T09:11:26;0.70;99.90
58582;DHT22;44361;51.476;5.700;2023-03-08T09:13:52;0.80;99.90
58582;DHT22;44361;51.476;5.700;2023-03-08T09:16:26;0.90;99.90
58582;DHT22;44361;51.476;5.700;2023-03-08T09:18:53;0.90;99.90
58582;DHT22;44361;51.476;5.700;2023-03-08T09:21:20;0.90;99.90
58582;DHT22;44361;51.476;5.700;2023-03-08T09:23:46;0.80;99.90
58582;DHT22;44361;51.476;5.700;2023-03-08T09:26:12;0.80;99.90
58582;DHT22;44361;51.476;5.700;2023-03-08T09:28:37;0.80;99.90
58582;DHT22;44361;51.476;5.700;2023-03-08T09:31:15;0.70;99.90
58582;DHT22;44361;51.476;5.700;2023-03-08T09:33:49;0.70;99.90
58582;DHT22;44361;51.476;5.700;2023-03-08T09:36:17;0.80;99.90
58582;DHT22;44361;51.476;5.700;2023-03-08T09:38:43;0.80;99.90
58582;DHT22;44361;51.476;5.700;2023-03-08T09:44:43;0.90;99.90
58582;DHT22;44361;51.476;5.700;2023-03-08T09:52:41;1.00;99.90
58582;DHT22;44361;51.476;5.700;2023-03-08T09:55:27;1.10;99.90
58582;DHT22;44361;51.476;5.700;2023-03-08T09:58:04;1.10;99.90
58582;DHT22;44361;51.476;5.700;2023-03-08T10:00:32;1.20;99.90
58582;DHT22;44361;51.476;5.700;2023-03-08T10:08:25;1.40;99.90
58582;DHT22;44361;51.476;5.700;2023-03-08T10:10:58;1.50;99.90
58582;DHT22;44361;51.476;5.700;2023-03-08T10:13:37;1.50;99.90
58582;DHT22;44361;51.476;5.700;2023-03-08T10:16:25;1.50;99.90
58582;DHT22;44361;51.476;5.700;2023-03-08T10:19:21;1.60;99.90
58582;DHT22;44361;51.476;5.700;2023-03-08T10:21:48;1.50;99.90
58582;DHT22;44361;51.476;5.700;2023-03-08T10:24:33;1.70;99.90
58582;DHT22;44361;51.476;5.700;2023-03-08T10:27:12;1.80;99.90
58582;DHT22;44361;51.476;5.700;2023-03-08T10:29:39;1.80;99.90
58582;DHT22;44361;51.476;5.700;2023-03-08T10:32:04;1.90;99.90
58582;DHT22;44361;51.476;5.700;2023-03-08T10:34:31;1.80;99.90
58582;DHT22;44361;51.476;5.700;2023-03-08T10:37:03;1.60;99.90
58582;DHT22;44361;51.476;5.700;2023-03-08T10:39:29;1.60;99.90
58582;DHT22;44361;51.476;5.700;2023-03-08T10:42:05;1.60;99.90
58582;DHT22;44361;51.476;5.700;2023-03-08T10:44:37;1.70;99.90
58582;DHT22;44361;51.476;5.700;2023-03-08T10:49:42;1.60;99.90
58582;DHT22;44361;51.476;5.700;2023-03-08T10:52:25;1.50;99.90
58582;DHT22;44361;51.476;5.700;2023-03-08T10:55:02;1.60;99.90
58582;DHT22;44361;51.476;5.700;2023-03-08T10:57:28;1.60;99.90
58582;DHT22;44361;51.476;5.700;2023-03-08T10:59:58;1.60;99.90
58582;DHT22;44361;51.476;5.700;2023-03-08T11:02:24;1.70;99.90
58582;DHT22;44361;51.476;5.700;2023-03-08T11:04:51;1.80;99.90
58582;DHT22;44361;51.476;5.700;2023-03-08T11:07:26;1.80;99.90
58582;DHT22;44361;51.476;5.700;2023-03-08T11:10:24;1.90;99.90
58582;DHT22;44361;51.476;5.700;2023-03-08T11:12:49;1.80;99.90
58582;DHT22;44361;51.476;5.700;2023-03-08T11:15:24;1.80;99.90
58582;DHT22;44361;51.476;5.700;2023-03-08T11:20:27;1.90;99.90
58582;DHT22;44361;51.476;5.700;2023-03-08T11:23:10;1.80;99.90
58582;DHT22;44361;51.476;5.700;2023-03-08T11:25:45;1.80;99.90
58582;DHT22;44361;51.476;5.700;2023-03-08T11:31:18;1.80;99.90
58582;DHT22;44361;51.476;5.700;2023-03-08T11:36:50;1.80;99.90
58582;DHT22;44361;51.476;5.700;2023-03-08T11:39:32;1.90;99.90
58582;DHT22;44361;51.476;5.700;2023-03-08T11:42:18;1.90;99.90
58582;DHT22;44361;51.476;5.700;2023-03-08T11:50:33;1.70;99.90
58582;DHT22;44361;51.476;5.700;2023-03-08T11:58:49;2.00;99.90
58582;DHT22;44361;51.476;5.700;2023-03-08T12:01:23;2.10;99.90
58582;DHT22;44361;51.476;5.700;2023-03-08T12:03:53;1.90;99.90
58582;DHT22;44361;51.476;5.700;2023-03-08T12:06:25;2.00;99.90
58582;DHT22;44361;51.476;5.700;2023-03-08T12:08:59;2.10;99.90
58582;DHT22;44361;51.476;5.700;2023-03-08T12:11:31;2.10;99.90
58582;DHT22;44361;51.476;5.700;2023-03-08T12:14:22;2.10;99.90
58582;DHT22;44361;51.476;5.700;2023-03-08T12:17:12;2.20;99.90
58582;DHT22;44361;51.476;5.700;2023-03-08T12:19:44;2.20;99.90
58582;DHT22;44361;51.476;5.700;2023-03-08T12:25:06;2.20;99.90
58582;DHT22;44361;51.476;5.700;2023-03-08T12:33:10;2.20;99.90
58582;DHT22;44361;51.476;5.700;2023-03-08T12:35:37;2.20;99.90
58582;DHT22;44361;51.476;5.700;2023-03-08T12:40:50;2.20;99.90
58582;DHT22;44361;51.476;5.700;2023-03-08T12:45:47;2.30;99.90
58582;DHT22;44361;51.476;5.700;2023-03-08T12:48:34;2.30;99.90
58582;DHT22;44361;51.476;5.700;2023-03-08T12:51:24;2.20;99.90
58582;DHT22;44361;51.476;5.700;2023-03-08T12:53:59;2.20;99.90
58582;DHT22;44361;51.476;5.700;2023-03-08T12:59:35;2.20;99.90
58582;DHT22;44361;51.476;5.700;2023-03-08T13:02:21;2.30;99.90
58582;DHT22;44361;51.476;5.700;2023-03-08T13:04:47;2.30;99.90
58582;DHT22;44361;51.476;5.700;2023-03-08T13:10:03;2.30;99.90
58582;DHT22;44361;51.476;5.700;2023-03-08T13:12:58;2.30;99.90
58582;DHT22;44361;51.476;5.700;2023-03-08T13:15:25;2.30;99.90
58582;DHT22;44361;51.476;5.700;2023-03-08T13:21:38;2.20;99.90
58582;DHT22;44361;51.476;5.700;2023-03-08T13:23:58;2.20;99.90
58582;DHT22;44361;51.476;5.700;2023-03-08T13:26:39;2.30;99.90
58582;DHT22;44361;51.476;5.700;2023-03-08T13:29:12;2.30;99.90
58582;DHT22;44361;51.476;5.700;2023-03-08T13:31:39;2.40;99.90
58582;DHT22;44361;51.476;5.700;2023-03-08T13:34:24;2.40;99.90
58582;DHT22;44361;51.476;5.700;2023-03-08T13:36:50;2.40;99.90
58582;DHT22;44361;51.476;5.700;2023-03-08T13:39:24;2.50;99.90
58582;DHT22;44361;51.476;5.700;2023-03-08T13:41:50;2.50;99.90
58582;DHT22;44361;51.476;5.700;2023-03-08T13:46:42;2.50;99.90
58582;DHT22;44361;51.476;5.700;2023-03-08T13:49:29;2.50;99.90
58582;DHT22;44361;51.476;5.700;2023-03-08T13:51:58;2.40;99.90
58582;DHT22;44361;51.476;5.700;2023-03-08T13:54:30;2.40;99.90
58582;DHT22;44361;51.476;5.700;2023-03-08T13:56:58;2.40;99.90
58582;DHT22;44361;51.476;5.700;2023-03-08T13:59:25;2.40;99.90
58582;DHT22;44361;51.476;5.700;2023-03-08T14:01:51;2.40;99.90
58582;DHT22;44361;51.476;5.700;2023-03-08T14:04:26;2.30;99.90
58582;DHT22;44361;51.476;5.700;2023-03-08T14:06:56;2.40;99.90
58582;DHT22;44361;51.476;5.700;2023-03-08T14:09:23;2.50;99.90
58582;DHT22;44361;51.476;5.700;2023-03-08T14:12:02;2.50;99.90
58582;DHT22;44361;51.476;5.700;2023-03-08T14:14:38;2.50;99.90
58582;DHT22;44361;51.476;5.700;2023-03-08T14:17:05;2.50;99.90
58582;DHT22;44361;51.476;5.700;2023-03-08T14:19:34;2.60;99.90
58582;DHT22;44361;51.476;5.700;2023-03-08T14:22:22;2.50;99.90
58582;DHT22;44361;51.476;5.700;2023-03-08T14:24:51;2.60;99.90
58582;DHT22;44361;51.476;5.700;2023-03-08T14:29:46;2.50;99.90
58582;DHT22;44361;51.476;5.700;2023-03-08T14:39:38;2.50;99.90
58582;DHT22;44361;51.476;5.700;2023-03-08T14:42:21;2.50;99.90
58582;DHT22;44361;51.476;5.700;2023-03-08T14:44:56;2.50;99.90
58582;DHT22;44361;51.476;5.700;2023-03-08T14:47:27;2.60;99.90
58582;DHT22;44361;51.476;5.700;2023-03-08T14:50:50;2.60;99.90
58582;DHT22;44361;51.476;5.700;2023-03-08T14:52:52;2.60;99.90
58582;DHT22;44361;51.476;5.700;2023-03-08T14:55:24;2.50;99.90
58582;DHT22;44361;51.476;5.700;2023-03-08T14:57:52;2.60;99.90
58582;DHT22;44361;51.476;5.700;2023-03-08T15:00:19;2.60;99.90
58582;DHT22;44361;51.476;5.700;2023-03-08T15:02:44;2.60;99.90
58582;DHT22;44361;51.476;5.700;2023-03-08T15:05:15;2.70;99.90
58582;DHT22;44361;51.476;5.700;2023-03-08T15:07:41;2.60;99.90
58582;DHT22;44361;51.476;5.700;2023-03-08T15:10:17;2.50;99.90
58582;DHT22;44361;51.476;5.700;2023-03-08T15:12:44;2.50;99.90
58582;DHT22;44361;51.476;5.700;2023-03-08T15:15:13;2.50;99.90
58582;DHT22;44361;51.476;5.700;2023-03-08T15:17:39;2.60;99.90
58582;DHT22;44361;51.476;5.700;2023-03-08T15:20:05;2.60;99.90
58582;DHT22;44361;51.476;5.700;2023-03-08T15:22:31;2.70;99.90
58582;DHT22;44361;51.476;5.700;2023-03-08T15:24:58;2.70;99.90
58582;DHT22;44361;51.476;5.700;2023-03-08T15:27:23;2.60;99.90
58582;DHT22;44361;51.476;5.700;2023-03-08T15:29:49;2.50;99.90
58582;DHT22;44361;51.476;5.700;2023-03-08T15:32:14;2.60;99.90
58582;DHT22;44361;51.476;5.700;2023-03-08T15:34:40;2.50;99.90
58582;DHT22;44361;51.476;5.700;2023-03-08T15:37:05;2.50;99.90
58582;DHT22;44361;51.476;5.700;2023-03-08T15:39:32;2.50;99.90
58582;DHT22;44361;51.476;5.700;2023-03-08T15:41:57;2.50;99.90
58582;DHT22;44361;51.476;5.700;2023-03-08T15:44:24;2.50;99.90
58582;DHT22;44361;51.476;5.700;2023-03-08T15:46:49;2.50;99.90
58582;DHT22;44361;51.476;5.700;2023-03-08T15:49:15;2.50;99.90
58582;DHT22;44361;51.476;5.700;2023-03-08T15:51:41;2.50;99.90
58582;DHT22;44361;51.476;5.700;2023-03-08T15:54:07;2.50;99.90
58582;DHT22;44361;51.476;5.700;2023-03-08T15:56:32;2.50;99.90
58582;DHT22;44361;51.476;5.700;2023-03-08T15:58:58;2.40;99.90
58582;DHT22;44361;51.476;5.700;2023-03-08T16:01:25;2.40;99.90
58582;DHT22;44361;51.476;5.700;2023-03-08T16:03:53;2.50;99.90
58582;DHT22;44361;51.476;5.700;2023-03-08T16:06:19;2.40;99.90
58582;DHT22;44361;51.476;5.700;2023-03-08T16:08:45;2.40;99.90
58582;DHT22;44361;51.476;5.700;2023-03-08T16:11:13;2.40;99.90
58582;DHT22;44361;51.476;5.700;2023-03-08T16:13:39;2.30;99.90
58582;DHT22;44361;51.476;5.700;2023-03-08T16:16:05;2.30;99.90
58582;DHT22;44361;51.476;5.700;2023-03-08T16:18:32;2.30;99.90
58582;DHT22;44361;51.476;5.700;2023-03-08T16:20:58;2.30;99.90
58582;DHT22;44361;51.476;5.700;2023-03-08T16:23:24;2.30;99.90
58582;DHT22;44361;51.476;5.700;2023-03-08T16:26:04;2.30;99.90
58582;DHT22;44361;51.476;5.700;2023-03-08T16:28:30;2.30;99.90
58582;DHT22;44361;51.476;5.700;2023-03-08T16:30:56;2.30;99.90
58582;DHT22;44361;51.476;5.700;2023-03-08T16:33:22;2.30;99.90
58582;DHT22;44361;51.476;5.700;2023-03-08T16:35:49;2.30;99.90
58582;DHT22;44361;51.476;5.700;2023-03-08T16:38:15;2.30;99.90
58582;DHT22;44361;51.476;5.700;2023-03-08T16:40:41;2.30;99.90
58582;DHT22;44361;51.476;5.700;2023-03-08T16:43:06;2.30;99.90
58582;DHT22;44361;51.476;5.700;2023-03-08T16:45:32;2.30;99.90
58582;DHT22;44361;51.476;5.700;2023-03-08T16:47:58;2.30;99.90
58582;DHT22;44361;51.476;5.700;2023-03-08T16:50:24;2.30;99.90
58582;DHT22;44361;51.476;5.700;2023-03-08T16:52:55;2.20;99.90
58582;DHT22;44361;51.476;5.700;2023-03-08T16:55:25;2.20;99.90
58582;DHT22;44361;51.476;5.700;2023-03-08T16:57:50;2.20;99.90
58582;DHT22;44361;51.476;5.700;2023-03-08T17:00:16;2.10;99.90
58582;DHT22;44361;51.476;5.700;2023-03-08T17:02:42;2.10;99.90
58582;DHT22;44361;51.476;5.700;2023-03-08T17:05:08;2.00;99.90
58582;DHT22;44361;51.476;5.700;2023-03-08T17:07:36;2.00;99.90
58582;DHT22;44361;51.476;5.700;2023-03-08T17:10:03;2.00;99.90
58582;DHT22;44361;51.476;5.700;2023-03-08T17:12:29;1.90;99.90
58582;DHT22;44361;51.476;5.700;2023-03-08T17:14:55;1.90;99.90